sensor_id;sensor_type;location;lat;lon;timestamp;P1;durP1;ratioP1;P2;durP2;ratioP2
63320;SDS011;49449;48.800;9.534;2022-12-20T00:01:38;22.73;;;13.70;;
63320;SDS011;49449;48.800;9.534;2022-12-20T00:04:06;19.77;;;12.82;;
63320;SDS011;49449;48.800;9.534;2022-12-20T00:06:34;19.45;;;12.25;;
63320;SDS011;49449;48.800;9.534;2022-12-20T00:09:03;21.58;;;15.10;;
63320;SDS011;49449;48.800;9.534;2022-12-20T00:11:32;21.02;;;14.10;;
63320;SDS011;49449;48.800;9.534;2022-12-20T00:14:01;18.63;;;13.60;;
63320;SDS011;49449;48.800;9.534;2022-12-20T00:16:30;19.83;;;14.27;;
63320;SDS011;49449;48.800;9.534;2022-12-20T00:18:58;20.10;;;13.27;;
63320;SDS011;49449;48.800;9.534;2022-12-20T00:21:27;21.27;;;14.60;;
63320;SDS011;49449;48.800;9.534;2022-12-20T00:23:56;18.92;;;13.15;;
63320;SDS011;49449;48.800;9.534;2022-12-20T00:26:25;20.83;;;13.98;;
63320;SDS011;49449;48.800;9.534;2022-12-20T00:28:54;17.75;;;13.70;;
63320;SDS011;49449;48.800;9.534;2022-12-20T00:31:22;24.83;;;15.18;;
63320;SDS011;49449;48.800;9.534;2022-12-20T00:33:53;23.88;;;16.38;;
63320;SDS011;49449;48.800;9.534;2022-12-20T00:36:23;21.88;;;14.07;;
63320;SDS011;49449;48.800;9.534;2022-12-20T00:38:52;22.13;;;15.10;;
63320;SDS011;49449;48.800;9.534;2022-12-20T00:41:22;22.45;;;14.30;;
63320;SDS011;49449;48.800;9.534;2022-12-20T00:43:51;18.77;;;12.55;;
63320;SDS011;49449;48.800;9.534;2022-12-20T00:46:20;21.73;;;14.68;;
63320;SDS011;49449;48.800;9.534;2022-12-20T00:48:48;22.27;;;14.82;;
63320;SDS011;49449;48.800;9.534;2022-12-20T00:51:18;22.83;;;15.40;;
63320;SDS011;49449;48.800;9.534;2022-12-20T00:53:47;21.25;;;14.45;;
63320;SDS011;49449;48.800;9.534;2022-12-20T00:56:15;20.20;;;14.10;;
63320;SDS011;49449;48.800;9.534;2022-12-20T00:58:43;19.75;;;14.52;;
63320;SDS011;49449;48.800;9.534;2022-12-20T01:01:15;21.35;;;15.52;;
63320;SDS011;49449;48.800;9.534;2022-12-20T01:03:46;20.45;;;13.65;;
63320;SDS011;49449;48.800;9.534;2022-12-20T01:06:13;20.83;;;14.77;;
63320;SDS011;49449;48.800;9.534;2022-12-20T01:08:43;18.95;;;13.20;;
63320;SDS011;49449;48.800;9.534;2022-12-20T01:11:12;21.30;;;14.65;;
63320;SDS011;49449;48.800;9.534;2022-12-20T01:13:42;19.33;;;14.95;;
63320;SDS011;49449;48.800;9.534;2022-12-20T01:16:12;20.35;;;14.50;;
63320;SDS011;49449;48.800;9.534;2022-12-20T01:18:42;19.05;;;13.90;;
63320;SDS011;49449;48.800;9.534;2022-12-20T01:21:11;22.58;;;16.33;;
63320;SDS011;49449;48.800;9.534;2022-12-20T01:23:41;26.33;;;16.88;;
63320;SDS011;49449;48.800;9.534;2022-12-20T01:26:11;24.80;;;15.95;;
63320;SDS011;49449;48.800;9.534;2022-12-20T01:28:41;20.35;;;13.48;;
63320;SDS011;49449;48.800;9.534;2022-12-20T01:31:11;19.95;;;13.60;;
63320;SDS011;49449;48.800;9.534;2022-12-20T01:33:41;19.38;;;13.85;;
63320;SDS011;49449;48.800;9.534;2022-12-20T01:36:10;22.60;;;15.02;;
63320;SDS011;49449;48.800;9.534;2022-12-20T01:38:39;24.60;;;15.38;;
63320;SDS011;49449;48.800;9.534;2022-12-20T01:41:07;21.67;;;13.85;;
63320;SDS011;49449;48.800;9.534;2022-12-20T01:43:47;21.25;;;13.50;;
63320;SDS011;49449;48.800;9.534;2022-12-20T01:46:16;19.55;;;13.13;;
63320;SDS011;49449;48.800;9.534;2022-12-20T01:48:49;22.92;;;14.60;;
63320;SDS011;49449;48.800;9.534;2022-12-20T01:51:21;21.77;;;13.73;;
63320;SDS011;49449;48.800;9.534;2022-12-20T01:53:51;22.15;;;14.43;;
63320;SDS011;49449;48.800;9.534;2022-12-20T01:56:22;21.40;;;14.50;;
63320;SDS011;49449;48.800;9.534;2022-12-20T01:58:52;18.75;;;13.35;;
63320;SDS011;49449;48.800;9.534;2022-12-20T02:01:22;21.48;;;14.02;;
63320;SDS011;49449;48.800;9.534;2022-12-20T02:03:51;19.63;;;12.10;;
63320;SDS011;49449;48.800;9.534;2022-12-20T02:06:21;21.02;;;13.93;;
63320;SDS011;49449;48.800;9.534;2022-12-20T02:08:50;17.52;;;12.85;;
63320;SDS011;49449;48.800;9.534;2022-12-20T02:11:23;19.80;;;14.85;;
63320;SDS011;49449;48.800;9.534;2022-12-20T02:14:07;21.65;;;14.98;;
63320;SDS011;49449;48.800;9.534;2022-12-20T02:16:43;22.52;;;13.68;;
63320;SDS011;49449;48.800;9.534;2022-12-20T02:19:23;19.95;;;14.27;;
63320;SDS011;49449;48.800;9.534;2022-12-20T02:22:13;21.05;;;13.60;;
63320;SDS011;49449;48.800;9.534;2022-12-20T02:27:40;19.40;;;13.43;;
63320;SDS011;49449;48.800;9.534;2022-12-20T02:30:16;19.83;;;12.82;;
63320;SDS011;49449;48.800;9.534;2022-12-20T02:32:47;21.08;;;14.02;;
63320;SDS011;49449;48.800;9.534;2022-12-20T02:35:22;18.85;;;13.15;;
63320;SDS011;49449;48.800;9.534;2022-12-20T02:37:52;18.17;;;12.32;;
63320;SDS011;49449;48.800;9.534;2022-12-20T02:40:22;16.77;;;11.90;;
63320;SDS011;49449;48.800;9.534;2022-12-20T02:42:52;17.55;;;12.57;;
63320;SDS011;49449;48.800;9.534;2022-12-20T02:45:26;20.63;;;13.05;;
63320;SDS011;49449;48.800;9.534;2022-12-20T02:47:59;19.75;;;13.40;;
63320;SDS011;49449;48.800;9.534;2022-12-20T02:50:30;22.27;;;13.60;;
63320;SDS011;49449;48.800;9.534;2022-12-20T02:55:30;22.67;;;16.00;;
63320;SDS011;49449;48.800;9.534;2022-12-20T02:58:08;22.10;;;14.68;;
63320;SDS011;49449;48.800;9.534;2022-12-20T03:00:41;19.15;;;12.95;;
63320;SDS011;49449;48.800;9.534;2022-12-20T03:03:11;18.75;;;13.35;;
63320;SDS011;49449;48.800;9.534;2022-12-20T03:05:50;15.35;;;11.30;;
63320;SDS011;49449;48.800;9.534;2022-12-20T03:08:20;19.05;;;12.68;;
63320;SDS011;49449;48.800;9.534;2022-12-20T03:10:49;17.67;;;11.95;;
63320;SDS011;49449;48.800;9.534;2022-12-20T03:13:19;18.45;;;12.25;;
63320;SDS011;49449;48.800;9.534;2022-12-20T03:15:49;22.60;;;15.13;;
63320;SDS011;49449;48.800;9.534;2022-12-20T03:18:17;24.05;;;15.20;;
63320;SDS011;49449;48.800;9.534;2022-12-20T03:20:45;19.25;;;14.50;;
63320;SDS011;49449;48.800;9.534;2022-12-20T03:23:13;20.38;;;14.88;;
63320;SDS011;49449;48.800;9.534;2022-12-20T03:25:41;20.10;;;12.77;;
63320;SDS011;49449;48.800;9.534;2022-12-20T03:28:09;19.48;;;12.27;;
63320;SDS011;49449;48.800;9.534;2022-12-20T03:30:36;18.77;;;11.88;;
63320;SDS011;49449;48.800;9.534;2022-12-20T03:33:05;19.67;;;11.98;;
63320;SDS011;49449;48.800;9.534;2022-12-20T03:35:33;17.02;;;11.65;;
63320;SDS011;49449;48.800;9.534;2022-12-20T03:38:01;15.88;;;10.85;;
63320;SDS011;49449;48.800;9.534;2022-12-20T03:40:29;17.38;;;11.93;;
63320;SDS011;49449;48.800;9.534;2022-12-20T03:42:57;18.60;;;12.45;;
63320;SDS011;49449;48.800;9.534;2022-12-20T03:45:25;18.27;;;12.75;;
63320;SDS011;49449;48.800;9.534;2022-12-20T03:47:53;20.40;;;13.88;;
63320;SDS011;49449;48.800;9.534;2022-12-20T03:50:22;20.80;;;14.65;;
63320;SDS011;49449;48.800;9.534;2022-12-20T03:52:50;20.88;;;13.18;;
63320;SDS011;49449;48.800;9.534;2022-12-20T03:55:17;19.85;;;13.18;;
63320;SDS011;49449;48.800;9.534;2022-12-20T03:57:45;19.55;;;12.63;;
63320;SDS011;49449;48.800;9.534;2022-12-20T04:00:13;19.10;;;13.15;;
63320;SDS011;49449;48.800;9.534;2022-12-20T04:02:42;19.60;;;11.43;;
63320;SDS011;49449;48.800;9.534;2022-12-20T04:05:10;16.38;;;11.32;;
63320;SDS011;49449;48.800;9.534;2022-12-20T04:07:39;17.02;;;12.45;;
63320;SDS011;49449;48.800;9.534;2022-12-20T04:10:07;17.77;;;12.55;;
63320;SDS011;49449;48.800;9.534;2022-12-20T04:12:35;17.17;;;11.40;;
63320;SDS011;49449;48.800;9.534;2022-12-20T04:15:03;19.58;;;12.02;;
63320;SDS011;49449;48.800;9.534;2022-12-20T04:17:33;17.42;;;11.43;;
63320;SDS011;49449;48.800;9.534;2022-12-20T04:20:01;19.25;;;11.77;;
63320;SDS011;49449;48.800;9.534;2022-12-20T04:22:45;17.63;;;11.55;;
63320;SDS011;49449;48.800;9.534;2022-12-20T04:25:14;16.55;;;10.57;;
63320;SDS011;49449;48.800;9.534;2022-12-20T04:27:42;16.48;;;10.75;;
63320;SDS011;49449;48.800;9.534;2022-12-20T04:30:11;16.15;;;11.38;;
63320;SDS011;49449;48.800;9.534;2022-12-20T04:32:39;18.48;;;13.02;;
63320;SDS011;49449;48.800;9.534;2022-12-20T04:35:07;17.42;;;11.18;;
63320;SDS011;49449;48.800;9.534;2022-12-20T04:37:35;18.58;;;12.07;;
63320;SDS011;49449;48.800;9.534;2022-12-20T04:40:05;17.67;;;11.80;;
63320;SDS011;49449;48.800;9.534;2022-12-20T04:42:34;18.98;;;12.93;;
63320;SDS011;49449;48.800;9.534;2022-12-20T04:45:02;20.40;;;11.70;;
63320;SDS011;49449;48.800;9.534;2022-12-20T04:47:30;16.48;;;10.68;;
63320;SDS011;49449;48.800;9.534;2022-12-20T04:49:58;16.85;;;11.77;;
63320;SDS011;49449;48.800;9.534;2022-12-20T04:52:25;20.05;;;13.43;;
63320;SDS011;49449;48.800;9.534;2022-12-20T04:55:14;18.35;;;11.57;;
63320;SDS011;49449;48.800;9.534;2022-12-20T04:57:42;20.40;;;13.05;;
63320;SDS011;49449;48.800;9.534;2022-12-20T05:00:10;16.48;;;11.48;;
63320;SDS011;49449;48.800;9.534;2022-12-20T05:02:40;16.67;;;11.50;;
63320;SDS011;49449;48.800;9.534;2022-12-20T05:05:08;19.50;;;12.13;;
63320;SDS011;49449;48.800;9.534;2022-12-20T05:07:36;20.90;;;12.10;;
63320;SDS011;49449;48.800;9.534;2022-12-20T05:10:04;18.42;;;11.00;;
63320;SDS011;49449;48.800;9.534;2022-12-20T05:12:33;14.80;;;9.93;;
63320;SDS011;49449;48.800;9.534;2022-12-20T05:15:01;19.15;;;10.88;;
63320;SDS011;49449;48.800;9.534;2022-12-20T05:17:29;16.92;;;12.02;;
63320;SDS011;49449;48.800;9.534;2022-12-20T05:19:57;19.30;;;12.18;;
63320;SDS011;49449;48.800;9.534;2022-12-20T05:22:25;17.23;;;11.68;;
63320;SDS011;49449;48.800;9.534;2022-12-20T05:25:10;17.23;;;11.63;;
63320;SDS011;49449;48.800;9.534;2022-12-20T05:27:57;17.55;;;11.10;;
63320;SDS011;49449;48.800;9.534;2022-12-20T05:30:25;16.42;;;11.02;;
63320;SDS011;49449;48.800;9.534;2022-12-20T05:32:53;17.90;;;11.75;;
63320;SDS011;49449;48.800;9.534;2022-12-20T05:35:20;15.25;;;10.93;;
63320;SDS011;49449;48.800;9.534;2022-12-20T05:37:48;19.15;;;11.88;;
63320;SDS011;49449;48.800;9.534;2022-12-20T05:40:16;16.67;;;11.02;;
63320;SDS011;49449;48.800;9.534;2022-12-20T05:42:44;23.42;;;14.55;;
63320;SDS011;49449;48.800;9.534;2022-12-20T05:45:13;17.50;;;12.40;;
63320;SDS011;49449;48.800;9.534;2022-12-20T05:47:41;26.42;;;19.58;;
63320;SDS011;49449;48.800;9.534;2022-12-20T05:50:09;21.67;;;14.77;;
63320;SDS011;49449;48.800;9.534;2022-12-20T05:52:40;19.05;;;13.18;;
63320;SDS011;49449;48.800;9.534;2022-12-20T05:55:08;18.95;;;11.23;;
63320;SDS011;49449;48.800;9.534;2022-12-20T05:57:36;17.10;;;12.05;;
63320;SDS011;49449;48.800;9.534;2022-12-20T06:00:04;17.60;;;12.13;;
63320;SDS011;49449;48.800;9.534;2022-12-20T06:02:37;19.20;;;12.43;;
63320;SDS011;49449;48.800;9.534;2022-12-20T06:05:05;18.77;;;12.25;;
63320;SDS011;49449;48.800;9.534;2022-12-20T06:07:33;17.65;;;12.20;;
63320;SDS011;49449;48.800;9.534;2022-12-20T06:10:01;17.55;;;11.60;;
63320;SDS011;49449;48.800;9.534;2022-12-20T06:12:28;17.52;;;12.60;;
63320;SDS011;49449;48.800;9.534;2022-12-20T06:14:56;16.52;;;12.27;;
63320;SDS011;49449;48.800;9.534;2022-12-20T06:17:24;17.33;;;12.57;;
63320;SDS011;49449;48.800;9.534;2022-12-20T06:19:53;20.60;;;14.38;;
63320;SDS011;49449;48.800;9.534;2022-12-20T06:22:21;20.52;;;12.98;;
63320;SDS011;49449;48.800;9.534;2022-12-20T06:24:48;18.42;;;12.77;;
63320;SDS011;49449;48.800;9.534;2022-12-20T06:27:16;16.77;;;12.13;;
63320;SDS011;49449;48.800;9.534;2022-12-20T06:29:46;23.67;;;15.63;;
63320;SDS011;49449;48.800;9.534;2022-12-20T06:32:17;25.65;;;15.90;;
63320;SDS011;49449;48.800;9.534;2022-12-20T06:34:45;22.65;;;14.35;;
63320;SDS011;49449;48.800;9.534;2022-12-20T06:37:14;22.35;;;14.80;;
63320;SDS011;49449;48.800;9.534;2022-12-20T06:39:41;21.85;;;14.10;;
63320;SDS011;49449;48.800;9.534;2022-12-20T06:42:09;19.15;;;12.82;;
63320;SDS011;49449;48.800;9.534;2022-12-20T06:44:37;18.70;;;13.70;;
63320;SDS011;49449;48.800;9.534;2022-12-20T06:47:05;19.73;;;13.60;;
63320;SDS011;49449;48.800;9.534;2022-12-20T06:49:32;19.73;;;14.10;;
63320;SDS011;49449;48.800;9.534;2022-12-20T06:52:00;20.08;;;13.68;;
63320;SDS011;49449;48.800;9.534;2022-12-20T06:54:29;19.95;;;12.38;;
63320;SDS011;49449;48.800;9.534;2022-12-20T06:56:57;17.88;;;11.90;;
63320;SDS011;49449;48.800;9.534;2022-12-20T06:59:24;19.33;;;12.85;;
63320;SDS011;49449;48.800;9.534;2022-12-20T07:01:52;19.83;;;13.70;;
63320;SDS011;49449;48.800;9.534;2022-12-20T07:04:20;17.17;;;11.82;;
63320;SDS011;49449;48.800;9.534;2022-12-20T07:06:47;21.23;;;15.27;;
63320;SDS011;49449;48.800;9.534;2022-12-20T07:09:15;18.98;;;13.50;;
63320;SDS011;49449;48.800;9.534;2022-12-20T07:11:45;19.70;;;15.02;;
63320;SDS011;49449;48.800;9.534;2022-12-20T07:14:12;20.92;;;14.48;;
63320;SDS011;49449;48.800;9.534;2022-12-20T07:16:40;19.55;;;14.82;;
63320;SDS011;49449;48.800;9.534;2022-12-20T07:19:09;18.55;;;13.10;;
63320;SDS011;49449;48.800;9.534;2022-12-20T07:21:37;19.92;;;13.63;;
63320;SDS011;49449;48.800;9.534;2022-12-20T07:24:05;19.08;;;13.38;;
63320;SDS011;49449;48.800;9.534;2022-12-20T07:26:34;16.80;;;12.32;;
63320;SDS011;49449;48.800;9.534;2022-12-20T07:29:03;20.52;;;13.73;;
63320;SDS011;49449;48.800;9.534;2022-12-20T07:31:33;19.65;;;14.18;;
63320;SDS011;49449;48.800;9.534;2022-12-20T07:34:01;20.10;;;15.38;;
63320;SDS011;49449;48.800;9.534;2022-12-20T07:36:28;19.33;;;14.05;;
63320;SDS011;49449;48.800;9.534;2022-12-20T07:38:56;20.40;;;16.35;;
63320;SDS011;49449;48.800;9.534;2022-12-20T07:41:24;22.95;;;15.45;;
63320;SDS011;49449;48.800;9.534;2022-12-20T07:43:52;20.60;;;15.25;;
63320;SDS011;49449;48.800;9.534;2022-12-20T07:46:21;21.10;;;15.57;;
63320;SDS011;49449;48.800;9.534;2022-12-20T07:48:49;20.67;;;16.77;;
63320;SDS011;49449;48.800;9.534;2022-12-20T07:51:17;19.85;;;15.25;;
63320;SDS011;49449;48.800;9.534;2022-12-20T07:53:51;18.65;;;14.05;;
63320;SDS011;49449;48.800;9.534;2022-12-20T07:56:22;24.67;;;16.75;;
63320;SDS011;49449;48.800;9.534;2022-12-20T07:58:50;20.05;;;16.13;;
63320;SDS011;49449;48.800;9.534;2022-12-20T08:01:25;21.90;;;15.90;;
63320;SDS011;49449;48.800;9.534;2022-12-20T08:03:57;21.52;;;15.15;;
63320;SDS011;49449;48.800;9.534;2022-12-20T08:06:28;18.88;;;14.18;;
63320;SDS011;49449;48.800;9.534;2022-12-20T08:08:57;18.58;;;13.77;;
63320;SDS011;49449;48.800;9.534;2022-12-20T08:11:28;20.23;;;13.93;;
63320;SDS011;49449;48.800;9.534;2022-12-20T08:13:58;20.35;;;14.52;;
63320;SDS011;49449;48.800;9.534;2022-12-20T08:16:28;27.05;;;16.48;;
63320;SDS011;49449;48.800;9.534;2022-12-20T08:18:56;21.92;;;14.18;;
63320;SDS011;49449;48.800;9.534;2022-12-20T08:21:24;17.45;;;13.43;;
63320;SDS011;49449;48.800;9.534;2022-12-20T08:23:52;19.35;;;13.13;;
63320;SDS011;49449;48.800;9.534;2022-12-20T08:26:19;18.63;;;12.90;;
63320;SDS011;49449;48.800;9.534;2022-12-20T08:28:47;17.83;;;13.00;;
63320;SDS011;49449;48.800;9.534;2022-12-20T08:31:15;18.30;;;12.95;;
63320;SDS011;49449;48.800;9.534;2022-12-20T08:33:44;17.80;;;12.40;;
63320;SDS011;49449;48.800;9.534;2022-12-20T08:36:12;18.52;;;12.45;;
63320;SDS011;49449;48.800;9.534;2022-12-20T08:38:40;18.60;;;12.02;;
63320;SDS011;49449;48.800;9.534;2022-12-20T08:41:09;18.08;;;12.30;;
63320;SDS011;49449;48.800;9.534;2022-12-20T08:43:38;18.25;;;12.60;;
63320;SDS011;49449;48.800;9.534;2022-12-20T08:46:08;17.20;;;11.98;;
63320;SDS011;49449;48.800;9.534;2022-12-20T08:48:37;17.95;;;12.32;;
63320;SDS011;49449;48.800;9.534;2022-12-20T08:51:07;17.13;;;12.43;;
63320;SDS011;49449;48.800;9.534;2022-12-20T08:53:37;15.40;;;10.98;;
63320;SDS011;49449;48.800;9.534;2022-12-20T08:56:05;15.43;;;11.88;;
63320;SDS011;49449;48.800;9.534;2022-12-20T08:58:35;13.75;;;10.57;;
63320;SDS011;49449;48.800;9.534;2022-12-20T09:01:04;15.25;;;10.77;;
63320;SDS011;49449;48.800;9.534;2022-12-20T09:03:34;14.68;;;11.25;;
63320;SDS011;49449;48.800;9.534;2022-12-20T09:06:03;17.02;;;11.00;;
63320;SDS011;49449;48.800;9.534;2022-12-20T09:08:34;16.88;;;12.45;;
63320;SDS011;49449;48.800;9.534;2022-12-20T09:11:04;18.13;;;11.70;;
63320;SDS011;49449;48.800;9.534;2022-12-20T09:13:33;15.52;;;10.77;;
63320;SDS011;49449;48.800;9.534;2022-12-20T09:16:05;13.93;;;10.52;;
63320;SDS011;49449;48.800;9.534;2022-12-20T09:18:33;13.85;;;10.25;;
63320;SDS011;49449;48.800;9.534;2022-12-20T09:21:02;14.20;;;10.93;;
63320;SDS011;49449;48.800;9.534;2022-12-20T09:23:31;15.32;;;11.60;;
63320;SDS011;49449;48.800;9.534;2022-12-20T09:26:02;16.88;;;10.98;;
63320;SDS011;49449;48.800;9.534;2022-12-20T09:28:31;17.23;;;11.93;;
63320;SDS011;49449;48.800;9.534;2022-12-20T09:30:59;14.52;;;10.13;;
63320;SDS011;49449;48.800;9.534;2022-12-20T09:33:27;16.48;;;10.82;;
63320;SDS011;49449;48.800;9.534;2022-12-20T09:35:57;15.95;;;10.63;;
63320;SDS011;49449;48.800;9.534;2022-12-20T09:38:25;16.40;;;10.38;;
63320;SDS011;49449;48.800;9.534;2022-12-20T09:40:58;15.90;;;11.65;;
63320;SDS011;49449;48.800;9.534;2022-12-20T09:43:29;15.18;;;10.57;;
63320;SDS011;49449;48.800;9.534;2022-12-20T09:45:59;14.52;;;10.65;;
63320;SDS011;49449;48.800;9.534;2022-12-20T09:48:29;16.15;;;10.93;;
63320;SDS011;49449;48.800;9.534;2022-12-20T09:51:01;14.60;;;11.07;;
63320;SDS011;49449;48.800;9.534;2022-12-20T09:53:40;16.52;;;11.18;;
63320;SDS011;49449;48.800;9.534;2022-12-20T09:56:21;15.60;;;11.80;;
63320;SDS011;49449;48.800;9.534;2022-12-20T09:58:57;16.02;;;11.38;;
63320;SDS011;49449;48.800;9.534;2022-12-20T10:01:28;15.43;;;12.25;;
63320;SDS011;49449;48.800;9.534;2022-12-20T10:04:04;15.90;;;11.60;;
63320;SDS011;49449;48.800;9.534;2022-12-20T10:06:39;16.58;;;12.15;;
63320;SDS011;49449;48.800;9.534;2022-12-20T10:09:20;16.00;;;12.52;;
63320;SDS011;49449;48.800;9.534;2022-12-20T10:12:08;16.25;;;11.63;;
63320;SDS011;49449;48.800;9.534;2022-12-20T10:14:49;17.05;;;12.88;;
63320;SDS011;49449;48.800;9.534;2022-12-20T10:17:32;19.20;;;13.60;;
63320;SDS011;49449;48.800;9.534;2022-12-20T10:20:21;17.38;;;12.18;;
63320;SDS011;49449;48.800;9.534;2022-12-20T10:23:01;22.00;;;13.77;;
63320;SDS011;49449;48.800;9.534;2022-12-20T10:25:34;19.90;;;14.45;;
63320;SDS011;49449;48.800;9.534;2022-12-20T10:28:04;22.35;;;15.45;;
63320;SDS011;49449;48.800;9.534;2022-12-20T10:30:39;15.80;;;11.82;;
63320;SDS011;49449;48.800;9.534;2022-12-20T10:33:09;20.13;;;12.90;;
63320;SDS011;49449;48.800;9.534;2022-12-20T10:35:43;16.40;;;12.30;;
63320;SDS011;49449;48.800;9.534;2022-12-20T10:38:12;18.67;;;13.60;;
63320;SDS011;49449;48.800;9.534;2022-12-20T10:40:43;16.98;;;12.30;;
63320;SDS011;49449;48.800;9.534;2022-12-20T10:43:38;15.27;;;11.52;;
63320;SDS011;49449;48.800;9.534;2022-12-20T10:46:09;15.38;;;10.75;;
63320;SDS011;49449;48.800;9.534;2022-12-20T10:48:40;14.95;;;10.98;;
63320;SDS011;49449;48.800;9.534;2022-12-20T10:51:13;13.10;;;10.35;;
63320;SDS011;49449;48.800;9.534;2022-12-20T10:53:50;15.18;;;11.50;;
63320;SDS011;49449;48.800;9.534;2022-12-20T10:56:23;16.45;;;11.10;;
63320;SDS011;49449;48.800;9.534;2022-12-20T10:58:56;14.18;;;10.45;;
63320;SDS011;49449;48.800;9.534;2022-12-20T11:01:27;16.83;;;11.65;;
63320;SDS011;49449;48.800;9.534;2022-12-20T11:03:58;17.60;;;11.00;;
63320;SDS011;49449;48.800;9.534;2022-12-20T11:06:29;14.30;;;10.82;;
63320;SDS011;49449;48.800;9.534;2022-12-20T11:09:21;14.70;;;10.93;;
63320;SDS011;49449;48.800;9.534;2022-12-20T11:12:03;15.98;;;11.23;;
63320;SDS011;49449;48.800;9.534;2022-12-20T11:14:34;22.92;;;14.57;;
63320;SDS011;49449;48.800;9.534;2022-12-20T11:17:04;22.75;;;15.43;;
63320;SDS011;49449;48.800;9.534;2022-12-20T11:19:53;17.48;;;13.70;;
63320;SDS011;49449;48.800;9.534;2022-12-20T11:22:33;14.48;;;11.18;;
63320;SDS011;49449;48.800;9.534;2022-12-20T11:25:18;21.63;;;12.52;;
63320;SDS011;49449;48.800;9.534;2022-12-20T11:27:54;28.33;;;14.23;;
63320;SDS011;49449;48.800;9.534;2022-12-20T11:30:34;22.42;;;14.40;;
63320;SDS011;49449;48.800;9.534;2022-12-20T11:33:12;18.23;;;14.88;;
63320;SDS011;49449;48.800;9.534;2022-12-20T11:35:54;18.27;;;14.18;;
63320;SDS011;49449;48.800;9.534;2022-12-20T11:38:35;18.73;;;13.75;;
63320;SDS011;49449;48.800;9.534;2022-12-20T11:41:10;14.10;;;11.25;;
63320;SDS011;49449;48.800;9.534;2022-12-20T11:43:51;15.93;;;11.55;;
63320;SDS011;49449;48.800;9.534;2022-12-20T11:46:52;16.83;;;12.75;;
63320;SDS011;49449;48.800;9.534;2022-12-20T11:49:32;13.20;;;11.23;;
63320;SDS011;49449;48.800;9.534;2022-12-20T11:52:12;14.63;;;11.30;;
63320;SDS011;49449;48.800;9.534;2022-12-20T11:54:51;18.17;;;12.93;;
63320;SDS011;49449;48.800;9.534;2022-12-20T11:57:25;15.27;;;11.10;;
63320;SDS011;49449;48.800;9.534;2022-12-20T12:00:10;15.27;;;13.23;;
63320;SDS011;49449;48.800;9.534;2022-12-20T12:02:43;15.20;;;11.27;;
63320;SDS011;49449;48.800;9.534;2022-12-20T12:05:19;15.95;;;11.85;;
63320;SDS011;49449;48.800;9.534;2022-12-20T12:07:52;16.60;;;12.32;;
63320;SDS011;49449;48.800;9.534;2022-12-20T12:10:23;14.50;;;10.05;;
63320;SDS011;49449;48.800;9.534;2022-12-20T12:12:58;14.30;;;10.93;;
63320;SDS011;49449;48.800;9.534;2022-12-20T12:15:33;16.80;;;11.07;;
63320;SDS011;49449;48.800;9.534;2022-12-20T12:18:10;17.63;;;13.10;;
63320;SDS011;49449;48.800;9.534;2022-12-20T12:20:44;15.57;;;11.95;;
63320;SDS011;49449;48.800;9.534;2022-12-20T12:23:19;16.65;;;12.43;;
63320;SDS011;49449;48.800;9.534;2022-12-20T12:25:50;17.60;;;11.95;;
63320;SDS011;49449;48.800;9.534;2022-12-20T12:28:19;15.57;;;12.00;;
63320;SDS011;49449;48.800;9.534;2022-12-20T12:30:51;16.75;;;12.70;;
63320;SDS011;49449;48.800;9.534;2022-12-20T12:33:27;14.52;;;12.73;;
63320;SDS011;49449;48.800;9.534;2022-12-20T12:36:08;17.35;;;13.65;;
63320;SDS011;49449;48.800;9.534;2022-12-20T12:39:03;16.52;;;14.25;;
63320;SDS011;49449;48.800;9.534;2022-12-20T12:45:02;15.95;;;12.63;;
63320;SDS011;49449;48.800;9.534;2022-12-20T12:47:34;15.25;;;11.45;;
63320;SDS011;49449;48.800;9.534;2022-12-20T12:50:13;16.58;;;12.40;;
63320;SDS011;49449;48.800;9.534;2022-12-20T12:52:49;15.98;;;12.25;;
63320;SDS011;49449;48.800;9.534;2022-12-20T12:55:37;15.65;;;12.18;;
63320;SDS011;49449;48.800;9.534;2022-12-20T12:58:12;14.30;;;10.82;;
63320;SDS011;49449;48.800;9.534;2022-12-20T13:00:48;14.20;;;10.35;;
63320;SDS011;49449;48.800;9.534;2022-12-20T13:09:34;20.08;;;13.23;;
63320;SDS011;49449;48.800;9.534;2022-12-20T13:18:20;30.05;;;26.85;;
63320;SDS011;49449;48.800;9.534;2022-12-20T13:29:55;19.50;;;13.77;;
63320;SDS011;49449;48.800;9.534;2022-12-20T13:35:42;18.25;;;13.63;;
63320;SDS011;49449;48.800;9.534;2022-12-20T13:41:10;16.92;;;13.07;;
63320;SDS011;49449;48.800;9.534;2022-12-20T13:43:46;17.80;;;14.55;;
63320;SDS011;49449;48.800;9.534;2022-12-20T13:46:18;21.10;;;16.52;;
63320;SDS011;49449;48.800;9.534;2022-12-20T13:48:51;17.92;;;13.77;;
63320;SDS011;49449;48.800;9.534;2022-12-20T13:51:22;19.35;;;15.70;;
63320;SDS011;49449;48.800;9.534;2022-12-20T13:53:51;20.42;;;14.70;;
63320;SDS011;49449;48.800;9.534;2022-12-20T13:56:32;21.00;;;14.43;;
63320;SDS011;49449;48.800;9.534;2022-12-20T13:59:14;20.02;;;13.70;;
63320;SDS011;49449;48.800;9.534;2022-12-20T14:01:48;21.02;;;14.07;;
63320;SDS011;49449;48.800;9.534;2022-12-20T14:04:18;21.63;;;15.32;;
63320;SDS011;49449;48.800;9.534;2022-12-20T14:06:49;18.25;;;14.48;;
63320;SDS011;49449;48.800;9.534;2022-12-20T14:09:29;22.27;;;16.40;;
63320;SDS011;49449;48.800;9.534;2022-12-20T14:12:03;28.08;;;21.20;;
63320;SDS011;49449;48.800;9.534;2022-12-20T14:14:37;26.05;;;18.73;;
63320;SDS011;49449;48.800;9.534;2022-12-20T14:17:14;24.45;;;17.52;;
63320;SDS011;49449;48.800;9.534;2022-12-20T14:19:43;20.63;;;15.35;;
63320;SDS011;49449;48.800;9.534;2022-12-20T14:22:11;17.27;;;14.32;;
63320;SDS011;49449;48.800;9.534;2022-12-20T14:24:40;18.25;;;15.15;;
63320;SDS011;49449;48.800;9.534;2022-12-20T14:27:10;19.58;;;15.10;;
63320;SDS011;49449;48.800;9.534;2022-12-20T14:29:41;19.85;;;15.73;;
63320;SDS011;49449;48.800;9.534;2022-12-20T14:32:16;20.73;;;14.82;;
63320;SDS011;49449;48.800;9.534;2022-12-20T14:34:45;20.10;;;14.68;;
63320;SDS011;49449;48.800;9.534;2022-12-20T14:37:23;19.33;;;14.05;;
63320;SDS011;49449;48.800;9.534;2022-12-20T14:39:55;19.50;;;14.80;;
63320;SDS011;49449;48.800;9.534;2022-12-20T14:42:26;16.60;;;12.57;;
63320;SDS011;49449;48.800;9.534;2022-12-20T14:45:02;20.17;;;14.30;;
63320;SDS011;49449;48.800;9.534;2022-12-20T14:47:32;20.52;;;15.00;;
63320;SDS011;49449;48.800;9.534;2022-12-20T14:50:00;19.15;;;14.93;;
63320;SDS011;49449;48.800;9.534;2022-12-20T14:52:32;22.30;;;14.82;;
63320;SDS011;49449;48.800;9.534;2022-12-20T14:55:05;26.02;;;18.48;;
63320;SDS011;49449;48.800;9.534;2022-12-20T14:57:42;22.63;;;16.55;;
63320;SDS011;49449;48.800;9.534;2022-12-20T15:00:14;22.27;;;16.63;;
63320;SDS011;49449;48.800;9.534;2022-12-20T15:02:49;21.92;;;15.55;;
63320;SDS011;49449;48.800;9.534;2022-12-20T15:05:35;20.55;;;16.13;;
63320;SDS011;49449;48.800;9.534;2022-12-20T15:08:11;20.80;;;16.08;;
63320;SDS011;49449;48.800;9.534;2022-12-20T15:10:41;21.20;;;16.75;;
63320;SDS011;49449;48.800;9.534;2022-12-20T15:13:13;21.10;;;16.38;;
63320;SDS011;49449;48.800;9.534;2022-12-20T15:15:43;18.00;;;14.75;;
63320;SDS011;49449;48.800;9.534;2022-12-20T15:18:12;19.05;;;15.00;;
63320;SDS011;49449;48.800;9.534;2022-12-20T15:20:40;15.15;;;12.88;;
63320;SDS011;49449;48.800;9.534;2022-12-20T15:23:11;16.48;;;13.48;;